createdAt,value
2022-08-05T00:00:20.287Z,1011.6
2022-08-05T00:05:27.388Z,1011.6
2022-08-05T00:10:20.355Z,1011.9
2022-08-05T00:15:54.728Z,1011.8
2022-08-05T00:20:20.294Z,1011.7
2022-08-05T00:25:20.228Z,1011.7
2022-08-05T00:30:20.324Z,1011.7
2022-08-05T00:35:20.460Z,1011.7
2022-08-05T00:40:26.485Z,1011.6
2022-08-05T00:45:25.049Z,1011.7
2022-08-05T00:50:20.849Z,1011.8
2022-08-05T00:55:20.106Z,1011.7
2022-08-05T01:00:20.125Z,1011.6
2022-08-05T01:05:20.111Z,1011.6
2022-08-05T01:10:20.102Z,1011.7
2022-08-05T01:15:35.959Z,1011.6
2022-08-05T01:20:20.106Z,1011.7
2022-08-05T01:25:20.127Z,1011.8
2022-08-05T01:30:20.107Z,1011.6
2022-08-05T01:35:50.416Z,1011.8
2022-08-05T01:40:20.099Z,1011.8
2022-08-05T01:45:20.160Z,1012.4
2022-08-05T01:50:20.103Z,1012.2
2022-08-05T01:55:20.104Z,1012.4
2022-08-05T02:00:20.113Z,1012.3
2022-08-05T02:05:20.111Z,1012.5
2022-08-05T02:10:20.152Z,1012.5
2022-08-05T02:15:20.091Z,1012.6
2022-08-05T02:20:20.605Z,1012.6
2022-08-05T02:25:20.112Z,1012.7
2022-08-05T02:30:20.117Z,1012.7
2022-08-05T02:35:22.175Z,1012.9
2022-08-05T02:40:20.120Z,1012.8
2022-08-05T02:45:20.114Z,1012.8
2022-08-05T02:50:20.105Z,1012.7
2022-08-05T02:55:52.370Z,1012.7
2022-08-05T03:00:20.104Z,1012.7
2022-08-05T03:05:21.753Z,1012.7
2022-08-05T03:10:21.693Z,1012.7
2022-08-05T03:15:20.100Z,1012.6
2022-08-05T03:20:20.110Z,1012.7
2022-08-05T03:25:34.256Z,1012.7
2022-08-05T03:30:20.774Z,1012.7
2022-08-05T03:35:20.095Z,1012.5
2022-08-05T03:40:24.089Z,1012.4
2022-08-05T03:45:21.257Z,1012.5
2022-08-05T03:50:20.112Z,1012.4
2022-08-05T03:55:54.457Z,1012.6
2022-08-05T04:00:20.103Z,1012.7
2022-08-05T04:05:20.116Z,1013
2022-08-05T04:10:20.101Z,1013
2022-08-05T04:15:20.099Z,1013
2022-08-05T04:20:20.123Z,1013.1
2022-08-05T04:25:20.110Z,1013.2
2022-08-05T04:30:20.111Z,1013.3
2022-08-05T04:35:20.207Z,1013.4
2022-08-05T04:40:20.105Z,1013.6
2022-08-05T04:45:23.136Z,1014.1
2022-08-05T04:50:34.576Z,1014.2
2022-08-05T04:55:21.131Z,1014.2
2022-08-05T05:00:23.423Z,1014.4
2022-08-05T05:05:26.754Z,1014.4
2022-08-05T05:10:20.111Z,1014.6
2022-08-05T05:15:54.501Z,1014.6
2022-08-05T05:20:20.287Z,1014.6
2022-08-05T05:25:20.100Z,1014.8
2022-08-05T05:30:30.032Z,1014.8
2022-08-05T05:35:20.188Z,1014.9
2022-08-05T05:40:20.108Z,1015
2022-08-05T05:45:20.148Z,1015
2022-08-05T05:50:20.117Z,1015
2022-08-05T05:55:20.103Z,1015
2022-08-05T06:00:20.124Z,1015.1
2022-08-05T06:05:20.288Z,1015.1
2022-08-05T06:10:20.128Z,1015.2
2022-08-05T06:15:23.878Z,1015.3
2022-08-05T06:20:21.590Z,1015.2
2022-08-05T06:25:24.720Z,1015.3
2022-08-05T06:30:21.323Z,1015.5
2022-08-05T06:35:21.960Z,1015.6
2022-08-05T06:40:21.273Z,1015.7
2022-08-05T06:45:20.611Z,1015.6
2022-08-05T06:50:20.116Z,1015.6
2022-08-05T06:55:20.106Z,1015.6
2022-08-05T07:00:22.375Z,1015.6
2022-08-05T07:05:23.390Z,1015.8
2022-08-05T07:10:20.119Z,1015.9
2022-08-05T07:15:34.030Z,1015.8
2022-08-05T07:20:37.235Z,1015.8
2022-08-05T07:25:24.214Z,1015.7
2022-08-05T07:30:22.993Z,1015.5
2022-08-05T07:35:56.315Z,1015.6
2022-08-05T07:40:26.432Z,1015.6
2022-08-05T07:45:31.157Z,1015.6
2022-08-05T07:50:22.646Z,1015.8
2022-08-05T07:55:44.714Z,1015.9
2022-08-05T08:00:20.116Z,1015.8
2022-08-05T08:05:20.117Z,1015.9
2022-08-05T08:10:20.399Z,1016
2022-08-05T08:15:28.137Z,1016
2022-08-05T08:20:23.309Z,1015.8
2022-08-05T08:25:26.695Z,1015.8
2022-08-05T08:30:30.249Z,1015.9
2022-08-05T08:35:20.111Z,1015.9
2022-08-05T08:40:20.117Z,1015.9
2022-08-05T08:45:26.436Z,1015.8
2022-08-05T08:50:32.107Z,1015.8
2022-08-05T08:55:32.343Z,1015.8
2022-08-05T09:00:20.216Z,1015.7
2022-08-05T09:05:38.156Z,1015.7
2022-08-05T09:10:20.109Z,1015.7
2022-08-05T09:15:20.305Z,1015.7
2022-08-05T09:20:20.955Z,1015.8
2022-08-05T09:25:24.216Z,1015.6
2022-08-05T09:30:23.378Z,1015.6
2022-08-05T09:35:26.394Z,1015.6
2022-08-05T09:40:20.174Z,1015.5
2022-08-05T09:46:05.445Z,1015.5
2022-08-05T09:50:38.383Z,1015.4
2022-08-05T09:55:56.038Z,1015.4
2022-08-05T10:00:20.107Z,1015.4
2022-08-05T10:05:20.111Z,1015.3
2022-08-05T10:10:28.085Z,1015.2
2022-08-05T10:15:20.833Z,1014.9
2022-08-05T10:20:20.140Z,1014.9
2022-08-05T10:25:20.098Z,1014.9
2022-08-05T10:30:42.192Z,1014.6
2022-08-05T10:35:20.107Z,1014.5
2022-08-05T10:40:20.151Z,1014.5
2022-08-05T10:45:21.114Z,1015
2022-08-05T10:50:20.410Z,1015
2022-08-05T10:55:20.109Z,1014.9
2022-08-05T11:00:22.646Z,1014.9
2022-08-05T11:05:20.114Z,1014.8
2022-08-05T11:10:20.107Z,1014.9
2022-08-05T11:15:21.119Z,1014.9
2022-08-05T11:20:20.119Z,1014.9
2022-08-05T11:26:03.654Z,1015
2022-08-05T11:30:20.116Z,1015.1
2022-08-05T11:35:20.105Z,1015.1
2022-08-05T11:40:20.135Z,1015.1
2022-08-05T11:45:23.486Z,1015.2
2022-08-05T11:50:20.102Z,1015.3
2022-08-05T11:55:20.106Z,1015.3
2022-08-05T12:00:20.102Z,1015.4
2022-08-05T12:05:20.107Z,1015.4
2022-08-05T12:10:20.101Z,1015.4
2022-08-05T12:15:20.100Z,1015.3
2022-08-05T12:20:27.359Z,1015.3
2022-08-05T12:25:20.107Z,1015.3
2022-08-05T12:30:20.112Z,1015.4
2022-08-05T12:35:21.793Z,1015.3
2022-08-05T12:40:20.831Z,1015.3
2022-08-05T12:45:20.230Z,1015.3
2022-08-05T12:50:20.107Z,1015.4
2022-08-05T12:55:21.911Z,1015.5
2022-08-05T13:01:58.927Z,1015.5
2022-08-05T13:05:20.107Z,1015.5
2022-08-05T13:10:20.521Z,1015.4
2022-08-05T13:15:24.255Z,1015.4
2022-08-05T13:20:23.714Z,1015.3
2022-08-05T13:25:21.868Z,1015.4
2022-08-05T13:30:35.533Z,1015.4
2022-08-05T13:35:22.045Z,1015.4
2022-08-05T13:40:35.803Z,1015.4
2022-08-05T13:45:20.182Z,1015.4
2022-08-05T13:50:20.105Z,1015.4
2022-08-05T13:55:41.369Z,1015.4
2022-08-05T14:00:26.711Z,1015.6
2022-08-05T14:05:29.583Z,1015.7
2022-08-05T14:10:28.270Z,1015.7
2022-08-05T14:16:06.655Z,1015.9
2022-08-05T14:20:20.097Z,1015.7
2022-08-05T14:25:22.028Z,1015.8
2022-08-05T14:30:21.398Z,1015.8
2022-08-05T14:35:20.610Z,1015.8
2022-08-05T14:40:20.108Z,1016
2022-08-05T14:45:20.109Z,1015.9
2022-08-05T14:50:20.118Z,1016
2022-08-05T14:55:20.109Z,1015.8
2022-08-05T15:00:20.144Z,1015.8
2022-08-05T15:05:20.108Z,1015.8
2022-08-05T15:10:20.111Z,1015.7
2022-08-05T15:15:54.767Z,1015.6
2022-08-05T15:20:24.604Z,1015.6
2022-08-05T15:25:23.361Z,1015.7
2022-08-05T15:30:20.120Z,1015.7
2022-08-05T15:35:21.738Z,1015.6
2022-08-05T15:40:41.921Z,1015.7
2022-08-05T15:45:37.149Z,1015.7
2022-08-05T15:50:20.106Z,1015.7
2022-08-05T15:55:20.106Z,1015.6
2022-08-05T16:00:25.868Z,1015.7
2022-08-05T16:05:20.117Z,1015.7
2022-08-05T16:10:23.266Z,1015.7
2022-08-05T16:15:20.103Z,1015.7
2022-08-05T16:20:20.101Z,1015.7
2022-08-05T16:25:20.112Z,1015.8
2022-08-05T16:30:23.508Z,1015.8
2022-08-05T16:35:20.112Z,1015.9
2022-08-05T16:40:25.214Z,1016
2022-08-05T16:46:05.534Z,1016
2022-08-05T16:50:20.102Z,1016.1
2022-08-05T16:55:20.361Z,1016.3
2022-08-05T17:00:25.894Z,1016.3
2022-08-05T17:05:20.104Z,1016.4
2022-08-05T17:10:20.103Z,1016.4
2022-08-05T17:15:20.117Z,1016.5
2022-08-05T17:20:20.107Z,1016.5
2022-08-05T17:25:22.059Z,1016.6
2022-08-05T17:30:28.418Z,1016.7
2022-08-05T17:35:20.745Z,1017
2022-08-05T17:40:22.221Z,1016.9
2022-08-05T17:45:21.724Z,1017
2022-08-05T17:50:22.713Z,1017.2
2022-08-05T17:55:20.092Z,1017.2
2022-08-05T18:00:20.446Z,1017.3
2022-08-05T18:05:20.153Z,1017.5
2022-08-05T18:10:20.699Z,1017.7
2022-08-05T18:15:20.102Z,1017.8
2022-08-05T18:20:29.080Z,1017.9
2022-08-05T18:25:20.113Z,1017.9
2022-08-05T18:30:20.109Z,1017.9
2022-08-05T18:35:20.097Z,1018
2022-08-05T18:40:34.730Z,1018.2
2022-08-05T18:45:20.098Z,1018.2
2022-08-05T18:50:20.106Z,1018.6
2022-08-05T18:55:20.120Z,1018.5
2022-08-05T19:00:20.937Z,1018.5
2022-08-05T19:06:06.934Z,1018.7
2022-08-05T19:10:26.725Z,1018.9
2022-08-05T19:15:25.374Z,1018.8
2022-08-05T19:20:20.136Z,1019
2022-08-05T19:25:21.810Z,1019
2022-08-05T19:30:20.549Z,1019.2
2022-08-05T19:35:21.742Z,1019.4
2022-08-05T19:40:20.116Z,1019.4
2022-08-05T19:45:20.101Z,1019.8
2022-08-05T19:50:20.117Z,1019.7
2022-08-05T19:56:11.923Z,1019.9
2022-08-05T20:00:20.737Z,1020
2022-08-05T20:05:24.249Z,1020.3
2022-08-05T20:10:22.271Z,1020.3
2022-08-05T20:15:23.563Z,1020.3
2022-08-05T20:20:20.123Z,1020.2
2022-08-05T20:25:20.101Z,1020.2
2022-08-05T20:30:20.122Z,1020.4
2022-08-05T20:35:20.117Z,1020.5
2022-08-05T20:40:20.120Z,1020.5
2022-08-05T20:45:21.032Z,1020.5
2022-08-05T20:50:20.108Z,1020.6
2022-08-05T20:55:54.601Z,1020.7
2022-08-05T21:00:39.999Z,1020.7
2022-08-05T21:05:20.107Z,1020.9
2022-08-05T21:10:20.110Z,1021
2022-08-05T21:15:20.103Z,1021
2022-08-05T21:20:32.516Z,1021.2
2022-08-05T21:25:20.113Z,1021.1
2022-08-05T21:30:20.105Z,1021.3
2022-08-05T21:35:29.703Z,1021.3
2022-08-05T21:40:20.120Z,1021.4
2022-08-05T21:45:24.346Z,1021.3
2022-08-05T21:50:20.111Z,1021.4
2022-08-05T21:55:26.639Z,1021.5
2022-08-05T22:00:20.118Z,1021.5
2022-08-05T22:05:20.113Z,1021.6
2022-08-05T22:10:25.628Z,1021.7
2022-08-05T22:15:57.248Z,1021.7
2022-08-05T22:20:20.113Z,1021.7
2022-08-05T22:25:21.933Z,1021.8
2022-08-05T22:30:20.116Z,1021.8
2022-08-05T22:35:20.105Z,1021.9
2022-08-05T22:40:20.361Z,1021.9
2022-08-05T22:45:20.117Z,1022
2022-08-05T22:50:23.632Z,1022.2
2022-08-05T22:55:20.150Z,1022.3
2022-08-05T23:00:21.083Z,1022.4
2022-08-05T23:05:21.952Z,1022.5
2022-08-05T23:10:20.598Z,1022.5
2022-08-05T23:15:20.102Z,1022.5
2022-08-05T23:20:20.111Z,1022.6
2022-08-05T23:25:50.725Z,1022.7
2022-08-05T23:30:20.110Z,1022.8
2022-08-05T23:35:20.100Z,1022.7
2022-08-05T23:40:21.430Z,1022.7
2022-08-05T23:45:20.110Z,1022.7
2022-08-05T23:50:20.461Z,1022.8
2022-08-05T23:55:20.118Z,1022.8
